createdAt,value
2022-09-12T00:00:52.209Z,22.13
2022-09-12T00:05:51.212Z,22.06
2022-09-12T00:10:51.468Z,22.14
2022-09-12T00:15:50.725Z,22.05
2022-09-12T00:20:49.679Z,22.15
2022-09-12T00:25:49.676Z,22.05
2022-09-12T00:30:50.578Z,22.07
2022-09-12T00:35:53.238Z,21.93
2022-09-12T00:40:52.247Z,21.91
2022-09-12T00:45:52.834Z,21.93
2022-09-12T00:50:52.166Z,21.80
2022-09-12T00:55:53.429Z,21.51
2022-09-12T01:00:54.037Z,21.69
2022-09-12T01:06:02.745Z,21.42
2022-09-12T01:11:01.711Z,21.58
2022-09-12T01:16:04.082Z,21.54
2022-09-12T01:21:17.192Z,21.63
2022-09-12T01:26:42.426Z,21.51
2022-09-12T01:31:50.928Z,21.36
2022-09-12T01:36:59.076Z,21.10
2022-09-12T01:42:11.436Z,21.05
2022-09-12T01:47:13.634Z,20.98
2022-09-12T01:52:16.791Z,21.06
2022-09-12T01:57:21.803Z,20.86
2022-09-12T02:02:27.401Z,20.82
2022-09-12T02:07:30.679Z,20.77
2022-09-12T02:12:38.090Z,20.48
2022-09-12T02:17:42.130Z,20.42
2022-09-12T02:22:42.755Z,20.54
2022-09-12T02:27:46.956Z,20.46
2022-09-12T02:32:58.198Z,20.30
2022-09-12T02:38:03.455Z,20.12
2022-09-12T02:43:04.348Z,20.12
2022-09-12T02:48:13.310Z,20.12
2022-09-12T02:53:12.973Z,20.08
2022-09-12T02:58:16.287Z,19.91
2022-09-12T03:03:31.110Z,19.75
2022-09-12T03:08:51.681Z,19.75
2022-09-12T03:14:02.009Z,19.68
2022-09-12T03:19:11.398Z,19.65
2022-09-12T03:24:17.834Z,19.51
2022-09-12T03:29:19.182Z,19.51
2022-09-12T03:34:20.018Z,19.48
2022-09-12T03:39:19.515Z,19.31
2022-09-12T03:44:18.597Z,19.21
2022-09-12T03:49:17.761Z,19.03
2022-09-12T03:54:25.421Z,18.98
2022-09-12T03:59:24.267Z,18.91
2022-09-12T04:04:23.133Z,19.03
2022-09-12T04:09:23.402Z,18.93
2022-09-12T04:14:22.235Z,18.91
2022-09-12T04:19:21.232Z,19.04
2022-09-12T04:24:20.133Z,18.98
2022-09-12T04:29:20.703Z,18.97
2022-09-12T04:34:19.634Z,18.83
2022-09-12T04:39:19.898Z,18.81
2022-09-12T04:44:20.623Z,18.60
2022-09-12T04:49:19.864Z,18.50
2022-09-12T04:54:20.789Z,18.55
2022-09-12T04:59:23.729Z,18.53
2022-09-12T05:04:22.874Z,18.40
2022-09-12T05:09:21.956Z,18.58
2022-09-12T05:14:22.258Z,18.76
2022-09-12T05:19:21.054Z,18.67
2022-09-12T05:24:19.912Z,18.76
2022-09-12T05:29:19.104Z,18.87
2022-09-12T05:34:19.471Z,18.79
2022-09-12T05:39:18.731Z,19.07
2022-09-12T05:44:17.822Z,19.15
2022-09-12T05:49:16.692Z,19.16
2022-09-12T05:54:19.558Z,19.04
2022-09-12T05:59:20.688Z,19.18
2022-09-12T06:04:19.452Z,19.22
2022-09-12T06:09:19.848Z,19.41
2022-09-12T06:14:19.607Z,19.34
2022-09-12T06:19:19.971Z,19.41
2022-09-12T06:24:21.455Z,19.51
2022-09-12T06:29:21.186Z,19.70
2022-09-12T06:34:20.085Z,19.73
2022-09-12T06:39:21.845Z,19.89
2022-09-12T06:44:23.101Z,20.12
2022-09-12T06:49:21.971Z,20.15
2022-09-12T06:54:23.751Z,20.09
2022-09-12T06:59:23.026Z,20.21
2022-09-12T07:04:22.192Z,20.32
2022-09-12T07:09:26.559Z,20.59
2022-09-12T07:14:28.510Z,20.75
2022-09-12T07:19:32.432Z,20.72
2022-09-12T07:24:32.578Z,21.01
2022-09-12T07:29:38.532Z,21.42
2022-09-12T07:34:37.900Z,21.96
2022-09-12T07:39:38.866Z,22.07
2022-09-12T07:44:38.891Z,22.51
2022-09-12T07:49:37.994Z,22.94
2022-09-12T07:54:38.480Z,22.71
2022-09-12T07:59:52.541Z,22.72
2022-09-12T08:04:52.961Z,22.93
2022-09-12T08:09:53.721Z,23.46
2022-09-12T08:14:52.506Z,23.73
2022-09-12T08:19:53.447Z,24.04
2022-09-12T08:24:54.032Z,23.76
2022-09-12T08:29:53.852Z,23.57
2022-09-12T08:34:52.550Z,23.83
2022-09-12T08:39:52.846Z,23.87
2022-09-12T08:45:07.923Z,23.79
2022-09-12T08:50:16.556Z,24.28
2022-09-12T08:55:26.954Z,24.54
2022-09-12T09:00:32.329Z,25.20
2022-09-12T09:05:44.673Z,25.22
2022-09-12T09:10:50.420Z,25.98
2022-09-12T09:16:00.207Z,26.85
2022-09-12T09:21:03.920Z,27.20
2022-09-12T09:26:07.947Z,27.54
2022-09-12T09:31:15.777Z,27.21
2022-09-12T09:36:22.526Z,27.63
2022-09-12T09:41:44.102Z,28.02
2022-09-12T09:46:44.700Z,29.15
2022-09-12T09:51:44.169Z,29.38
2022-09-12T09:56:44.399Z,29.79
2022-09-12T10:01:49.433Z,29.52
2022-09-12T10:06:48.545Z,29.64
2022-09-12T10:11:48.132Z,30.33
2022-09-12T10:16:53.661Z,31.11
2022-09-12T10:21:54.663Z,31.22
2022-09-12T10:26:57.209Z,31.43
2022-09-12T10:32:00.763Z,31.46
2022-09-12T10:37:05.791Z,31.01
2022-09-12T10:42:06.023Z,30.90
2022-09-12T10:47:24.738Z,31.20
2022-09-12T10:52:25.149Z,30.99
2022-09-12T10:57:54.629Z,31.77
2022-09-12T11:03:00.274Z,31.75
2022-09-12T11:08:09.331Z,31.64
2022-09-12T11:13:24.540Z,31.94
2022-09-12T11:18:38.280Z,31.29
2022-09-12T11:23:57.959Z,30.99
2022-09-12T11:29:07.842Z,30.59
2022-09-12T11:34:10.889Z,29.83
2022-09-12T11:39:16.110Z,29.85
2022-09-12T11:44:20.833Z,30.34
2022-09-12T11:49:30.497Z,30.39
2022-09-12T11:54:37.598Z,30.66
2022-09-12T11:59:45.575Z,31.88
2022-09-12T12:05:23.599Z,32.31
2022-09-12T12:10:37.411Z,32.84
2022-09-12T12:15:40.662Z,33.44
2022-09-12T12:20:41.099Z,33.19
2022-09-12T12:25:52.975Z,34.20
2022-09-12T12:31:11.378Z,35.06
2022-09-12T12:36:29.901Z,35.85
2022-09-12T12:41:47.404Z,36.23
2022-09-12T12:47:10.987Z,36.68
2022-09-12T12:52:19.797Z,37.02
2022-09-12T12:57:24.206Z,36.40
2022-09-12T13:02:28.873Z,36.78
2022-09-12T13:07:34.117Z,37.44
2022-09-12T13:12:36.972Z,37.38
2022-09-12T13:17:41.051Z,37.11
2022-09-12T13:22:43.670Z,36.48
2022-09-12T13:27:57.229Z,35.89
2022-09-12T13:32:58.963Z,34.43
2022-09-12T13:38:18.904Z,33.61
2022-09-12T13:43:23.220Z,32.79
2022-09-12T13:48:26.286Z,31.69
2022-09-12T13:53:30.337Z,31.07
2022-09-12T13:58:31.299Z,30.13
2022-09-12T14:03:49.896Z,29.77
2022-09-12T14:08:50.429Z,29.46
2022-09-12T14:13:49.311Z,28.93
2022-09-12T14:18:50.160Z,29.04
2022-09-12T14:23:51.037Z,29.10
2022-09-12T14:28:50.568Z,29.37
2022-09-12T14:33:54.304Z,29.27
2022-09-12T14:38:58.913Z,28.99
2022-09-12T14:44:01.454Z,29.10
2022-09-12T14:49:03.772Z,29.34
2022-09-12T14:54:04.455Z,29.92
2022-09-12T14:59:36.803Z,29.58
2022-09-12T15:04:42.944Z,29.72
2022-09-12T15:09:47.264Z,29.42
2022-09-12T15:14:53.447Z,29.24
2022-09-12T15:19:53.242Z,28.91
2022-09-12T15:24:53.794Z,28.67
2022-09-12T15:29:52.656Z,28.26
2022-09-12T15:34:51.503Z,28.25
2022-09-12T15:39:50.900Z,28.26
2022-09-12T15:44:51.163Z,28.18
2022-09-12T15:49:50.378Z,27.84
2022-09-12T15:54:53.643Z,27.68
2022-09-12T16:00:16.665Z,27.39
2022-09-12T16:05:21.437Z,27.13
2022-09-12T16:10:23.076Z,26.98
2022-09-12T16:15:25.381Z,26.80
2022-09-12T16:20:24.509Z,26.75
2022-09-12T16:25:23.496Z,26.74
2022-09-12T16:30:23.834Z,26.82
2022-09-12T16:35:24.815Z,26.87
2022-09-12T16:40:23.719Z,26.86
2022-09-12T16:45:24.107Z,26.86
2022-09-12T16:50:23.061Z,26.84
2022-09-12T16:55:22.431Z,26.78
2022-09-12T17:00:21.609Z,26.73
2022-09-12T17:05:21.920Z,26.70
2022-09-12T17:10:21.058Z,26.60
2022-09-12T17:15:20.001Z,26.48
2022-09-12T17:20:19.012Z,26.41
2022-09-12T17:25:19.328Z,26.29
2022-09-12T17:30:18.410Z,25.99
2022-09-12T17:35:17.377Z,25.70
2022-09-12T17:40:16.514Z,25.19
2022-09-12T17:45:18.586Z,24.87
2022-09-12T17:50:31.193Z,24.57
2022-09-12T17:55:32.204Z,24.26
2022-09-12T18:00:50.615Z,24.01
2022-09-12T18:05:49.876Z,23.83
2022-09-12T18:10:48.742Z,23.76
2022-09-12T18:15:49.088Z,23.57
2022-09-12T18:20:51.794Z,23.48
2022-09-12T18:25:50.644Z,23.47
2022-09-12T18:30:50.871Z,23.53
2022-09-12T18:35:49.801Z,23.54
2022-09-12T18:40:49.297Z,23.56
2022-09-12T18:46:07.279Z,23.55
2022-09-12T18:51:08.312Z,23.55
2022-09-12T18:56:09.574Z,23.51
2022-09-12T19:01:14.636Z,23.46
2022-09-12T19:06:17.722Z,23.45
2022-09-12T19:11:17.393Z,23.40
2022-09-12T19:16:23.978Z,23.34
2022-09-12T19:21:24.664Z,23.33
2022-09-12T19:26:23.595Z,23.27
2022-09-12T19:31:24.699Z,23.23
2022-09-12T19:41:42.730Z,23.17
2022-09-12T19:46:43.550Z,22.82
2022-09-12T19:51:42.855Z,22.71
2022-09-12T19:56:41.742Z,22.72
2022-09-12T20:01:40.833Z,22.78
2022-09-12T20:06:41.559Z,22.73
2022-09-12T20:11:40.333Z,22.44
2022-09-12T20:16:39.102Z,22.24
2022-09-12T20:21:38.293Z,22.14
2022-09-12T20:26:38.797Z,22.11
2022-09-12T20:31:39.516Z,21.70
2022-09-12T20:36:38.344Z,21.46
2022-09-12T20:41:38.429Z,21.40
2022-09-12T20:46:37.547Z,21.37
2022-09-12T20:51:37.108Z,21.22
2022-09-12T20:56:38.696Z,21.15
2022-09-12T21:01:37.841Z,20.96
2022-09-12T21:06:36.904Z,20.86
2022-09-12T21:11:35.777Z,20.78
2022-09-12T21:16:38.756Z,20.71
2022-09-12T21:21:38.065Z,20.75
2022-09-12T21:26:37.072Z,20.77
2022-09-12T21:32:31.145Z,20.74
2022-09-12T21:38:00.120Z,20.82
2022-09-12T21:42:59.190Z,20.75
2022-09-12T21:47:58.249Z,20.70
2022-09-12T21:52:56.839Z,20.63
2022-09-12T21:57:57.069Z,20.51
2022-09-12T22:02:56.331Z,20.30
2022-09-12T22:07:54.860Z,20.27
2022-09-12T22:12:53.474Z,20.20
2022-09-12T22:17:53.815Z,20.08
2022-09-12T22:23:09.642Z,20.05
2022-09-12T22:28:09.322Z,20.00
2022-09-12T22:33:10.278Z,19.80
2022-09-12T22:38:09.142Z,19.75
2022-09-12T22:43:07.808Z,19.61
2022-09-12T22:48:09.217Z,19.50
2022-09-12T22:53:09.524Z,19.46
2022-09-12T22:58:08.116Z,19.44
2022-09-12T23:03:06.753Z,19.39
2022-09-12T23:08:05.282Z,19.21
2022-09-12T23:13:05.373Z,19.24
2022-09-12T23:18:05.226Z,19.25
2022-09-12T23:23:04.048Z,19.34
2022-09-12T23:28:03.011Z,19.20
2022-09-12T23:33:02.980Z,19.19
2022-09-12T23:38:01.486Z,19.08
2022-09-12T23:43:00.289Z,18.93
2022-09-12T23:47:59.683Z,19.09
2022-09-12T23:53:02.386Z,19.08
2022-09-12T23:58:08.600Z,19.22
